Terminal Aerodrome Forecast
Issued by NWS

Home | Current Version | Previous Version | Text Only | Print | Product List | Glossary On
Versions: 1 2 3 4 5 6 7 8 9 10 11 12 13 14 15 16 17 18 19 20 21 22 23 24 25 26 27 28 29 30 31 32 33 34 35 36 37 38 39 40 41 42 43 44
384
FTUS41 KPBZ 191126
TAFAGC
TAF
KAGC 191126Z 1912/2012 04005KT P6SM BKN035
     FM191600 08008KT 5SM -SN OVC015
     FM191800 07010KT 1SM -SN OVC008
     FM192100 05010KT 2SM -SNRA OVC008
     FM200500 34013G25KT 1SM -SN OVC010=

USA.gov is the U.S. government's official web portal to all federal, state and local government web resources and services.